Latest Weather Observations for Hogan Island

IDV60801

Issued at 5:22 pm EDT Saturday 5 December 2020 (issued every 10 minutes, with the page automatically refreshed every 10 minutes)

About weather observations | Map of weather stations | Latest weather observations for VIC | Other Formats
Station Details ID: 200838 Name: HOGAN ISLAND Lat: -39.22 Lon: 146.98 Height: 116.0 m
Data from the previous 72 hours. | See also: Recent months at Hogan Island
Date/Time
EDT
Temp
°C
App
Temp
°C
Dew
Point
°C
Rel
Hum
%
Delta-T
°C
Wind Press
QNH
hPa
Press
MSL
hPa
Rain since
9am
mm
Dir  Spd
km/h
Gust
km/h
Spd
kts
Gust
kts
05/05:00pm 15.2 7.4 13.1 87 1.2 N 46 57 25 31 993.8 - 0.2
05/04:30pm 15.7 7.3 13.5 87 1.2 N 50 61 27 33 994.8 - 0.0
05/04:00pm 15.7 7.6 14.4 92 0.7 NNE 50 63 27 34 995.1 - 0.0
05/03:53pm 15.8 9.4 14.3 91 0.9 NE 41 61 22 33 995.1 - 0.0
05/03:30pm 15.7 10.4 14.1 90 0.9 NE 35 44 19 24 995.0 - 0.0
05/03:00pm 15.7 10.8 14.4 92 0.7 NE 33 43 18 23 996.1 995.9 0.0
05/02:30pm 15.5 9.0 14.0 91 0.9 ENE 41 50 22 27 996.4 - 0.0
05/02:05pm 16.1 9.2 13.9 87 1.2 ENE 43 63 23 34 996.7 - 0.0
05/02:00pm 16.5 10.4 14.2 86 1.3 ENE 39 46 21 25 997.6 - 0.0
05/01:30pm 17.1 11.6 14.7 86 1.4 ENE 37 46 20 25 998.5 - 0.0
05/01:00pm 16.2 10.5 14.2 88 1.1 ENE 37 43 20 23 999.5 - 0.0
05/12:30pm 16.5 10.0 14.0 85 1.4 ENE 41 48 22 26 1000.0 - 0.0
05/12:00pm 16.7 9.9 14.3 86 1.4 ENE 43 50 23 27 1000.7 1000.5 0.0
05/11:30am 15.5 9.0 13.9 90 0.9 ENE 41 46 22 25 1001.8 - 0.0
05/11:00am 15.2 8.9 13.6 90 0.9 ENE 39 46 21 25 1002.7 - 0.0
05/10:30am 14.9 8.5 13.1 89 1.0 NE 39 48 21 26 1003.6 - 0.0
05/10:00am 14.8 8.7 13.0 89 1.0 NE 37 43 20 23 1004.5 - 0.0
05/09:30am 14.6 8.1 13.0 90 0.9 NE 39 46 21 25 1005.1 - 0.0
05/09:00am 14.8 9.5 13.0 89 1.0 NE 33 41 18 22 1006.3 1006.1 0.0
05/08:30am 15.0 9.3 12.9 87 1.2 NE 35 41 19 22 1006.4 - 0.0
05/08:00am 14.4 9.3 13.0 91 0.8 NE 32 39 17 21 1007.0 - 0.0
05/07:30am 13.9 8.1 12.6 92 0.7 NE 35 43 19 23 1007.1 - 0.0
05/07:00am 13.9 8.6 12.6 92 0.7 NE 32 35 17 19 1007.4 - 0.0
05/06:30am 13.4 8.4 12.1 92 0.7 NE 30 33 16 18 1007.4 - 0.0
05/06:00am 13.2 8.6 12.3 94 0.5 NE 28 33 15 18 1007.9 1007.7 0.0
05/05:30am 12.9 9.9 11.8 93 0.6 ENE 19 22 10 12 1008.0 - 0.0
05/05:00am 12.6 9.8 11.5 93 0.6 NE 17 22 9 12 1008.4 - 0.0
05/04:30am 12.6 9.2 11.2 91 0.7 NNE 20 26 11 14 1008.8 - 0.0
05/04:00am 12.5 9.1 11.1 91 0.7 N 20 24 11 13 1009.1 - 0.0
05/03:30am 12.2 10.3 10.6 90 0.8 N 11 15 6 8 1009.7 - 0.0
05/03:00am 12.5 11.4 10.6 88 1.0 NNW 7 15 4 8 1011.0 1010.8 0.0
05/02:30am 12.9 10.3 10.8 87 1.1 WNW 15 19 8 10 1011.2 - 0.0
05/02:00am 12.7 9.3 10.6 87 1.1 W 19 20 10 11 1011.3 - 0.0
05/01:30am 12.8 8.5 10.7 87 1.1 WSW 24 30 13 16 1011.6 - 0.0
05/01:00am 12.9 7.8 10.6 86 1.2 W 28 30 15 16 1012.0 - 0.0
05/12:30am 12.9 7.8 10.6 86 1.2 W 28 32 15 17 1012.5 - 0.0
05/12:00am 13.0 8.7 10.7 86 1.2 W 24 30 13 16 1012.9 1012.7 0.0
 
Date/Time
EDT
Temp
°C
App
Temp
°C
Dew
Point
°C
Rel
Hum
%
Delta-T
°C
Wind Press
QNH
hPa
Press
MSL
hPa
Rain since
9am
mm
Dir  Spd
km/h
Gust
km/h
Spd
kts
Gust
kts
04/11:30pm 12.9 8.6 10.8 87 1.1 W 24 28 13 15 1013.0 - 0.0
04/11:00pm 13.0 8.3 10.7 86 1.2 W 26 30 14 16 1013.6 - 0.0
04/10:30pm 13.1 8.8 10.8 86 1.2 W 24 28 13 15 1013.6 - 0.0
04/10:00pm 13.0 8.6 10.4 84 1.4 W 24 28 13 15 1013.5 - 0.0
04/09:30pm 13.0 8.2 10.4 84 1.4 W 26 30 14 16 1013.3 - 0.0
04/09:00pm 13.1 7.9 10.1 82 1.6 W 28 33 15 18 1013.0 1012.8 0.0
04/08:30pm 13.4 7.3 10.4 82 1.6 W 33 35 18 19 1013.2 - 0.0
04/08:00pm 14.0 6.9 11.0 82 1.6 W 39 44 21 24 1013.5 - 0.0
04/07:30pm 14.5 7.3 11.8 84 1.5 W 41 46 22 25 1013.6 - 0.0
04/07:00pm 14.7 5.1 12.0 84 1.5 W 54 61 29 33 1013.4 - 0.0
04/06:30pm 15.6 5.7 12.4 81 1.8 W 56 67 30 36 1012.9 - 0.0
04/06:00pm 16.1 6.1 12.1 77 2.2 W 56 65 30 35 1012.5 1012.3 0.0
04/05:30pm 16.4 6.6 12.6 78 2.1 W 56 65 30 35 1012.5 - 0.0
04/05:00pm 15.9 6.5 12.8 82 1.7 W 54 61 29 33 1012.7 - 0.0
04/04:30pm 13.6 3.2 12.7 94 0.5 W 59 70 32 38 1012.9 - 0.0
04/04:00pm 14.0 3.0 12.0 88 1.1 W 61 74 33 40 1013.4 - 0.0
04/03:42pm 15.0 3.9 11.6 80 1.8 W 61 80 33 43 1013.4 - 0.0
04/03:30pm 15.5 3.6 11.3 76 2.3 W 65 76 35 41 1013.2 - 0.0
04/03:00pm 16.5 4.5 11.2 71 2.9 W 65 78 35 42 1013.4 1013.2 0.0
04/02:30pm 16.6 4.6 11.1 70 3.0 W 65 74 35 40 1013.5 - 0.0
04/02:00pm 16.6 5.0 11.3 71 2.9 W 63 74 34 40 1013.6 - 0.0
04/01:30pm 16.9 5.4 11.4 70 3.0 W 63 72 34 39 1013.9 - 0.0
04/01:00pm 16.6 6.0 10.7 68 3.2 W 57 69 31 37 1014.1 - 0.0
04/12:30pm 16.0 5.2 9.9 67 3.2 WNW 57 65 31 35 1013.9 - 0.0
04/12:00pm 16.4 6.3 10.5 68 3.1 W 54 63 29 34 1014.2 1014.0 0.0
04/11:30am 16.3 5.8 10.4 68 3.1 W 56 61 30 33 1014.3 - 0.0
04/11:00am 16.2 5.8 10.5 69 3.0 W 56 63 30 34 1014.3 - 0.0
04/10:30am 15.8 5.8 10.6 71 2.8 W 54 63 29 34 1014.2 - 0.0
04/10:00am 15.8 6.5 10.6 71 2.8 W 50 56 27 30 1014.4 - 0.0
04/09:30am 15.4 6.3 10.0 70 2.8 W 48 54 26 29 1014.5 - 0.0
04/09:00am 14.9 6.7 10.3 74 2.4 W 44 52 24 28 1014.5 1014.3 0.0
04/08:30am 14.2 6.6 10.6 79 1.9 W 41 46 22 25 1014.5 - 0.0
04/08:00am 14.2 6.7 11.0 81 1.7 W 41 46 22 25 1014.1 - 0.0
04/07:30am 13.9 8.3 10.3 79 1.9 W 30 33 16 18 1014.1 - 0.0
04/07:00am 13.1 8.1 9.7 80 1.7 W 26 30 14 16 1014.0 - 0.0
04/06:30am 13.1 9.1 10.6 85 1.3 WNW 22 28 12 15 1013.9 - 0.0
04/06:00am 12.9 8.1 10.4 85 1.3 WNW 26 30 14 16 1013.9 1013.7 0.0
04/05:30am 12.9 8.9 10.3 84 1.4 NW 22 26 12 14 1013.7 - 0.0
04/05:00am 12.6 8.6 10.3 86 1.2 NW 22 26 12 14 1013.6 - 0.0
04/04:30am 12.6 8.6 10.5 87 1.1 NNW 22 28 12 15 1013.7 - 0.0
04/04:00am 12.8 9.2 10.5 86 1.2 NNW 20 26 11 14 1013.9 - 0.0
04/03:30am 12.8 9.9 9.8 82 1.5 NNW 15 24 8 13 1014.3 - 0.0
04/03:00am 12.8 9.1 9.6 81 1.6 N 19 28 10 15 1014.5 1014.3 0.0
04/02:30am 12.1 8.3 9.1 82 1.5 N 19 26 10 14 1014.8 - 0.0
04/02:00am 11.7 7.8 8.6 81 1.5 N 19 22 10 12 1015.1 - 0.0
04/01:30am 11.8 7.9 8.5 80 1.6 N 19 20 10 11 1015.6 - 0.0
04/01:00am 11.3 7.3 8.3 82 1.5 N 19 20 10 11 1016.0 - 0.0
04/12:30am 11.3 8.6 7.4 77 1.9 N 11 13 6 7 1016.8 - 0.0
04/12:00am 11.5 8.9 7.6 77 1.9 N 11 15 6 8 1017.2 1017.0 0.0
 
Date/Time
EDT
Temp
°C
App
Temp
°C
Dew
Point
°C
Rel
Hum
%
Delta-T
°C
Wind Press
QNH
hPa
Press
MSL
hPa
Rain since
9am
mm
Dir  Spd
km/h
Gust
km/h
Spd
kts
Gust
kts
03/11:30pm 11.8 9.6 7.7 76 2.0 NW 9 13 5 7 1017.7 - 0.0
03/11:00pm 11.8 9.2 7.7 76 2.0 NW 11 15 6 8 1018.1 - 0.0
03/10:30pm 12.1 10.3 7.8 75 2.1 NW 7 11 4 6 1018.4 - 0.0
03/10:00pm 11.9 10.1 7.0 72 2.4 W 6 9 3 5 1018.5 - 0.0
03/09:30pm 12.1 8.3 7.6 74 2.2 SW 17 22 9 12 1017.9 - 0.0
03/09:00pm 11.7 8.7 7.6 76 2.0 SW 13 17 7 9 1018.0 1017.9 0.0
03/08:30pm 12.4 7.8 8.1 75 2.1 SW 22 26 12 14 1017.9 - 0.0
03/08:00pm 13.1 8.9 8.2 72 2.4 WSW 20 24 11 13 1018.2 - 0.0
03/07:30pm 14.1 9.5 8.1 67 3.0 WSW 22 26 12 14 1018.3 - 0.0
03/07:00pm 14.7 8.5 7.7 63 3.5 WSW 30 33 16 18 1018.3 - 0.0
03/06:30pm 15.5 9.0 8.3 62 3.7 WSW 32 35 17 19 1018.3 - 0.0
03/06:00pm 15.4 8.8 8.4 63 3.6 W 33 39 18 21 1018.4 1018.3 0.0
03/05:30pm 15.5 7.8 8.5 63 3.6 WSW 39 43 21 23 1018.7 - 0.0
03/05:00pm 15.7 8.0 8.7 63 3.6 WSW 39 44 21 24 1018.7 - 0.0
03/04:30pm 16.5 8.2 7.7 56 4.4 WSW 41 46 22 25 1018.9 - 0.0
03/04:00pm 17.0 9.8 7.6 54 4.8 W 35 41 19 22 1019.0 - 0.0
03/03:30pm 17.0 10.2 7.9 55 4.6 W 33 39 18 21 1019.3 - 0.0
03/03:00pm 17.2 11.1 8.1 55 4.6 W 30 35 16 19 1019.6 1019.5 0.0
03/02:30pm 17.1 11.2 7.7 54 4.8 W 28 33 15 18 1019.9 - 0.0
03/02:00pm 17.6 12.2 7.9 53 5.0 W 26 30 14 16 1020.0 - 0.0
03/01:30pm 17.0 11.5 7.4 53 4.8 W 26 32 14 17 1020.2 - 0.0
03/01:00pm 16.7 11.2 7.6 55 4.6 W 26 32 14 17 1020.6 - 0.0
03/12:30pm 16.3 10.1 6.2 51 4.9 WNW 28 33 15 18 1021.0 - 0.0
03/12:00pm 16.2 10.3 7.4 56 4.4 WNW 28 33 15 18 1021.2 1021.0 0.0
03/11:30am 15.4 10.6 7.2 58 4.1 WNW 22 28 12 15 1021.5 - 0.0
03/11:00am 15.0 9.7 6.8 58 4.0 WNW 24 30 13 16 1021.5 - 0.0
03/10:30am 15.0 9.5 6.0 55 4.3 WNW 24 30 13 16 1021.8 - 0.0
03/10:00am 14.9 9.2 6.5 57 4.1 WNW 26 30 14 16 1022.0 - 0.0
03/09:30am 14.9 8.7 6.0 55 4.3 WNW 28 33 15 18 1022.5 - 0.0
03/09:00am 14.4 8.6 6.3 58 3.9 WNW 26 30 14 16 1022.6 1022.4 0.6
03/08:30am 14.1 8.4 6.5 60 3.7 W 26 32 14 17 1022.2 - 0.6
03/08:00am 12.9 7.4 6.0 63 3.3 W 24 30 13 16 1022.0 - 0.6
03/07:30am 12.9 7.4 6.0 63 3.3 W 24 28 13 15 1021.7 - 0.6
03/07:00am 12.4 7.8 5.6 63 3.2 W 19 24 10 13 1021.9 - 0.6
03/06:30am 12.0 7.2 5.6 65 3.0 W 20 26 11 14 1021.9 - 0.6
03/06:00am 11.5 5.6 5.8 68 2.7 W 26 33 14 18 1021.9 1021.7 0.6
03/05:30am 11.0 5.8 5.7 70 2.5 W 22 28 12 15 1021.4 - 0.6
03/05:00am 11.3 6.2 6.2 71 2.4 W 22 28 12 15 1021.3 - 0.6
03/04:30am 11.6 5.5 6.5 71 2.4 W 28 35 15 19 1021.5 - 0.6
03/04:00am 11.6 5.9 6.9 73 2.3 W 26 30 14 16 1021.4 - 0.6
03/03:30am 11.5 6.2 6.6 72 2.3 W 24 30 13 16 1021.7 - 0.6
03/03:00am 11.6 6.3 6.7 72 2.3 WNW 24 28 13 15 1021.8 1021.6 0.6
03/02:30am 11.6 6.7 6.9 73 2.3 WSW 22 28 12 15 1021.8 - 0.6
03/02:00am 12.0 5.4 6.1 67 2.8 W 30 37 16 20 1022.4 - 0.6
03/01:30am 12.3 6.7 7.0 70 2.6 W 26 33 14 18 1022.9 - 0.6
03/01:00am 11.9 6.2 6.6 70 2.5 W 26 33 14 18 1023.1 - 0.6
03/12:30am 11.8 5.4 5.2 64 3.1 W 28 33 15 18 1023.4 - 0.6
03/12:00am 11.9 5.8 6.4 69 2.6 W 28 33 15 18 1024.0 1023.8 0.6
 
Date/Time
EDT
Temp
°C
App
Temp
°C
Dew
Point
°C
Rel
Hum
%
Delta-T
°C
Wind Press
QNH
hPa
Press
MSL
hPa
Rain since
9am
mm
Dir  Spd
km/h
Gust
km/h
Spd
kts
Gust
kts
02/11:30pm 12.1 4.1 5.9 66 2.9 W 37 44 20 24 1024.1 - 0.6
02/11:00pm 11.9 4.7 5.8 66 2.9 WSW 33 39 18 21 1024.0 - 0.6
02/10:30pm 12.3 3.3 6.4 67 2.8 WSW 43 50 23 27 1024.0 - 0.6
02/10:00pm 12.2 3.5 5.8 65 3.0 WSW 41 50 22 27 1024.0 - 0.6
02/09:30pm 12.4 3.3 5.8 64 3.1 WSW 43 50 23 27 1023.8 - 0.6
02/09:00pm 12.4 3.7 6.2 66 2.9 W 41 48 22 26 1023.4 1023.2 0.6
02/08:30pm 12.6 3.6 6.4 66 3.0 WSW 43 56 23 30 1023.5 - 0.6
02/08:00pm 12.9 3.1 6.9 67 2.9 WSW 48 59 26 32 1023.4 - 0.6
02/07:30pm 13.0 2.8 6.8 66 3.0 W 50 59 27 32 1023.2 - 0.6
02/07:00pm 13.7 2.3 6.6 62 3.4 WSW 56 63 30 34 1022.7 - 0.6
02/06:30pm 14.0 2.3 6.1 59 3.8 WSW 57 65 31 35 1022.3 - 0.6
02/06:00pm 14.3 2.9 7.4 63 3.4 W 57 67 31 36 1022.0 1021.8 0.6
02/05:30pm 14.2 2.5 7.7 65 3.2 W 59 70 32 38 1021.8 - 0.6

Other formats

Comma delimited format used in spreadsheet applications
http://www.bom.gov.au/fwo/IDV60801/IDV60801.94949.axf

JavaScript Object Notation format (JSON) in row-major order
http://www.bom.gov.au/fwo/IDV60801/IDV60801.94949.json

Data quality

Most of these data are generated automatically and are frequently updated. Quality checks on data are not normally performed. It is possible for incorrect values to appear. Refer to information at About Latest Weather Observations and please check the disclaimer before using these data.